Map

Track Data

SID SEASON NUMBER BASIN SUBBASIN NAME ISO_TIME NATURE LAT LON WMO_WIND WMO_PRES WMO_AGENCY TRACK_TYPE DIST2LAND LANDFALL IFLAG USA_AGENCY USA_ATCF_ID USA_LAT USA_LON USA_RECORD USA_STATUS USA_WIND USA_PRES USA_SSHS USA_R34_NE USA_R34_SE USA_R34_SW USA_R34_NW USA_R50_NE USA_R50_SE USA_R50_SW USA_R50_NW USA_R64_NE USA_R64_SE USA_R64_SW USA_R64_NW USA_POCI USA_ROCI USA_RMW USA_EYE TOKYO_LAT TOKYO_LON TOKYO_GRADE TOKYO_WIND TOKYO_PRES TOKYO_R50_DIR TOKYO_R50_LONG TOKYO_R50_SHORT TOKYO_R30_DIR TOKYO_R30_LONG TOKYO_R30_SHORT TOKYO_LAND CMA_LAT CMA_LON CMA_CAT CMA_WIND CMA_PRES HKO_LAT HKO_LON HKO_CAT HKO_WIND HKO_PRES NEWDELHI_LAT NEWDELHI_LON NEWDELHI_GRADE NEWDELHI_WIND NEWDELHI_PRES NEWDELHI_CI NEWDELHI_DP NEWDELHI_POCI REUNION_LAT REUNION_LON REUNION_TYPE REUNION_WIND REUNION_PRES REUNION_TNUM REUNION_CI REUNION_RMW REUNION_R34_NE REUNION_R34_SE REUNION_R34_SW REUNION_R34_NW REUNION_R50_NE REUNION_R50_SE REUNION_R50_SW REUNION_R50_NW REUNION_R64_NE REUNION_R64_SE REUNION_R64_SW REUNION_R64_NW BOM_LAT BOM_LON BOM_TYPE BOM_WIND BOM_PRES BOM_TNUM BOM_CI BOM_RMW BOM_R34_NE BOM_R34_SE BOM_R34_SW BOM_R34_NW BOM_R50_NE BOM_R50_SE BOM_R50_SW BOM_R50_NW BOM_R64_NE BOM_R64_SE BOM_R64_SW BOM_R64_NW BOM_ROCI BOM_POCI BOM_EYE BOM_POS_METHOD BOM_PRES_METHOD NADI_LAT NADI_LON NADI_CAT NADI_WIND NADI_PRES WELLINGTON_LAT WELLINGTON_LON WELLINGTON_WIND WELLINGTON_PRES DS824_LAT DS824_LON DS824_STAGE DS824_WIND DS824_PRES TD9636_LAT TD9636_LON TD9636_STAGE TD9636_WIND TD9636_PRES TD9635_LAT TD9635_LON TD9635_WIND TD9635_PRES TD9635_ROCI NEUMANN_LAT NEUMANN_LON NEUMANN_CLASS NEUMANN_WIND NEUMANN_PRES MLC_LAT MLC_LON MLC_CLASS MLC_WIND MLC_PRES USA_GUST BOM_GUST BOM_GUST_PER REUNION_GUST REUNION_GUST_PER USA_SEAHGT USA_SEARAD_NE USA_SEARAD_SE USA_SEARAD_SW USA_SEARAD_NW STORM_SPEED STORM_DIR
1887283N28321 1887 65 NA NA NOT_NAMED 1887-10-10 06:00:00 TS 28.2000 -39.0000 35 hurdat_atl main 2168 2168 O_____________ hurdat_atl AL141887 28.2000 -39.0000 TS 35 0 13 306
1887283N28321 1887 65 NA NA NOT_NAMED 1887-10-10 09:00:00 TS 28.5733 -39.5739 main 2223 2223 P_____________ AL141887 28.5733 -39.5739 TS 40 0 12 312
1887283N28321 1887 65 NA NA NOT_NAMED 1887-10-10 12:00:00 TS 29.0000 -40.0000 45 hurdat_atl main 2258 2210 O_____________ hurdat_atl AL141887 29.0000 -40.0000 TS 45 0 11 331
1887283N28321 1887 65 NA NA NOT_NAMED 1887-10-10 15:00:00 TS 29.5197 -40.1756 main 2210 2150 P_____________ AL141887 29.5197 -40.1756 TS 50 0 11 351
1887283N28321 1887 65 NA NA NOT_NAMED 1887-10-10 18:00:00 TS 30.1000 -40.2000 55 hurdat_atl main 2150 2091 O_____________ hurdat_atl AL141887 30.1000 -40.2000 TS 55 0 12 358
1887283N28321 1887 65 NA NA NOT_NAMED 1887-10-10 21:00:00 TS 30.6925 -40.2226 main 2091 2033 P_____________ AL141887 30.6925 -40.2226 TS 60 0 12 1
1887283N28321 1887 65 NA NA NOT_NAMED 1887-10-11 00:00:00 TS 31.3000 -40.2000 65 hurdat_atl main 2033 1974 O_____________ hurdat_atl AL141887 31.3000 -40.2000 HU 65 1 12 2
1887283N28321 1887 65 NA NA NOT_NAMED 1887-10-11 03:00:00 TS 31.9000 -40.1576 main 1974 1922 P_____________ AL141887 31.9000 -40.1576 HU 70 1 12 4
1887283N28321 1887 65 NA NA NOT_NAMED 1887-10-11 06:00:00 TS 32.5000 -40.1000 75 hurdat_atl main 1922 1874 O_____________ hurdat_atl AL141887 32.5000 -40.1000 HU 75 1 12 4
1887283N28321 1887 65 NA NA NOT_NAMED 1887-10-11 09:00:00 TS 33.0775 -40.0499 main 1870 1814 P_____________ AL141887 33.0775 -40.0499 HU 75 1 12 4
1887283N28321 1887 65 NA NA NOT_NAMED 1887-10-11 12:00:00 TS 33.7000 -40.0000 75 hurdat_atl main 1814 1750 O_____________ hurdat_atl AL141887 33.7000 -40.0000 HU 75 1 13 3
1887283N28321 1887 65 NA NA NOT_NAMED 1887-10-11 15:00:00 TS 34.4200 -39.9499 main 1755 1683 P_____________ AL141887 34.4200 -39.9499 HU 75 1 15 3
1887283N28321 1887 65 NA NA NOT_NAMED 1887-10-11 18:00:00 TS 35.2000 -39.9000 75 hurdat_atl main 1683 1622 O_____________ hurdat_atl AL141887 35.2000 -39.9000 HU 75 1 16 3
1887283N28321 1887 65 NA NA NOT_NAMED 1887-10-11 21:00:00 TS 35.9925 -39.8499 main 1618 1550 P_____________ AL141887 35.9925 -39.8499 HU 75 1 16 3
1887283N28321 1887 65 NA NA NOT_NAMED 1887-10-12 00:00:00 TS 36.8000 -39.8000 75 hurdat_atl main 1550 1484 O_____________ hurdat_atl AL141887 36.8000 -39.8000 HU 75 1 16 3
1887283N28321 1887 65 NA NA NOT_NAMED 1887-10-12 03:00:00 TS 37.6000 -39.7571 main 1484 1427 P_____________ AL141887 37.6000 -39.7571 HU 75 1 16 3
1887283N28321 1887 65 NA NA NOT_NAMED 1887-10-12 06:00:00 TS 38.4000 -39.7000 75 hurdat_atl main 1427 1366 O_____________ hurdat_atl AL141887 38.4000 -39.7000 HU 75 1 16 2
1887283N28321 1887 65 NA NA NOT_NAMED 1887-10-12 09:00:00 TS 39.2293 -39.6951 main 1366 1320 P_____________ AL141887 39.2293 -39.6951 HU 67 1 16 5
1887283N28321 1887 65 NA NA NOT_NAMED 1887-10-12 12:00:00 ET 40.0000 -39.5000 60 hurdat_atl main 1320 1313 O_____________ hurdat_atl AL141887 40.0000 -39.5000 EX 60 -4 15 23
1887283N28321 1887 65 NA NA NOT_NAMED 1887-10-12 15:00:00 ET 40.6419 -38.9216 main 1320 1313 P_____________ AL141887 40.6419 -38.9216 EX 47 -4 16 42
1887283N28321 1887 65 NA NA NOT_NAMED 1887-10-12 18:00:00 ET 41.2000 -38.1000 35 hurdat_atl main 1337 O_____________ hurdat_atl AL141887 41.2000 -38.1000 EX 35 -4 17 48

About IBTrACS Database

This database is a web-friendly format of International Best Track Archive for Climate Stewardship (IBTrACS), a global best track data archive curated by NOAA dating back to 1842.

Updated: 2021-11-26